createdAt,value
2024-02-16T00:02:04.915Z,5.88
2024-02-16T00:04:32.074Z,6.35
2024-02-16T00:06:59.272Z,6.03
2024-02-16T00:09:26.336Z,6.45
2024-02-16T00:11:53.921Z,5.05
2024-02-16T00:14:21.135Z,6.10
2024-02-16T00:16:48.767Z,6.28
2024-02-16T00:19:15.886Z,5.47
2024-02-16T00:21:43.765Z,5.57
2024-02-16T00:24:11.245Z,5.15
2024-02-16T00:26:40.851Z,5.45
2024-02-16T00:29:08.102Z,4.90
2024-02-16T00:31:35.202Z,4.97
2024-02-16T00:34:02.326Z,4.55
2024-02-16T00:36:31.490Z,4.45
2024-02-16T00:38:59.574Z,5.03
2024-02-16T00:41:27.161Z,4.90
2024-02-16T00:43:54.425Z,4.47
2024-02-16T00:46:23.977Z,4.80
2024-02-16T00:48:52.703Z,4.57
2024-02-16T00:51:19.795Z,4.70
2024-02-16T00:53:47.568Z,4.47
2024-02-16T00:56:14.616Z,4.72
2024-02-16T00:58:43.689Z,4.88
2024-02-16T01:01:12.696Z,6.47
2024-02-16T01:03:40.071Z,6.43
2024-02-16T01:06:07.833Z,5.28
2024-02-16T01:08:34.788Z,5.35
2024-02-16T01:11:01.764Z,5.07
2024-02-16T01:13:28.717Z,5.25
2024-02-16T01:15:55.611Z,5.10
2024-02-16T01:18:22.805Z,5.20
2024-02-16T01:20:49.770Z,6.05
2024-02-16T01:23:16.776Z,5.93
2024-02-16T01:25:43.729Z,5.18
2024-02-16T01:28:13.281Z,6.43
2024-02-16T01:30:40.985Z,7.28
2024-02-16T01:33:08.304Z,7.50
2024-02-16T01:35:35.730Z,6.82
2024-02-16T01:38:02.853Z,6.80
2024-02-16T01:40:29.940Z,6.43
2024-02-16T01:42:57.505Z,6.38
2024-02-16T01:45:24.785Z,7.20
2024-02-16T01:47:53.203Z,6.32
2024-02-16T01:50:20.583Z,6.45
2024-02-16T01:52:49.878Z,6.72
2024-02-16T01:55:18.168Z,6.20
2024-02-16T01:57:46.637Z,5.82
2024-02-16T02:00:16.557Z,5.68
2024-02-16T02:02:47.508Z,5.55
2024-02-16T02:05:16.463Z,6.18
2024-02-16T02:07:44.282Z,5.85
2024-02-16T02:10:14.377Z,5.78
2024-02-16T02:12:43.241Z,7.07
2024-02-16T02:15:10.491Z,6.00
2024-02-16T02:17:37.549Z,5.90
2024-02-16T02:20:05.534Z,6.00
2024-02-16T02:22:32.606Z,6.30
2024-02-16T02:24:59.492Z,6.00
2024-02-16T02:27:26.527Z,6.90
2024-02-16T02:29:53.518Z,6.10
2024-02-16T02:32:20.557Z,5.28
2024-02-16T02:34:47.673Z,5.03
2024-02-16T02:37:14.639Z,4.93
2024-02-16T02:39:41.754Z,4.50
2024-02-16T02:42:09.484Z,4.90
2024-02-16T02:44:36.787Z,5.05
2024-02-16T02:47:03.697Z,4.28
2024-02-16T02:49:30.836Z,4.40
2024-02-16T02:51:57.821Z,5.00
2024-02-16T02:54:24.727Z,5.07
2024-02-16T02:56:51.630Z,4.60
2024-02-16T02:59:18.604Z,4.72
2024-02-16T03:01:46.610Z,4.38
2024-02-16T03:04:13.600Z,4.63
2024-02-16T03:06:40.638Z,4.43
2024-02-16T03:09:08.036Z,4.38
2024-02-16T03:11:35.116Z,3.83
2024-02-16T03:14:02.024Z,4.30
2024-02-16T03:16:28.863Z,3.97
2024-02-16T03:18:56.684Z,3.90
2024-02-16T03:21:23.867Z,4.53
2024-02-16T03:23:50.893Z,4.60
2024-02-16T03:26:19.523Z,4.53
2024-02-16T03:28:48.410Z,4.45
2024-02-16T03:31:18.541Z,4.60
2024-02-16T03:33:45.552Z,4.30
2024-02-16T03:36:14.176Z,4.43
2024-02-16T03:38:53.042Z,4.18
2024-02-16T03:41:22.536Z,4.07
2024-02-16T03:43:49.468Z,4.45
2024-02-16T03:46:16.493Z,4.90
2024-02-16T03:48:43.817Z,4.35
2024-02-16T03:51:10.969Z,5.10
2024-02-16T03:53:37.943Z,4.85
2024-02-16T03:56:06.833Z,4.35
2024-02-16T03:58:33.824Z,4.43
2024-02-16T04:01:01.192Z,4.50
2024-02-16T04:03:28.527Z,4.32
2024-02-16T04:05:55.645Z,4.35
2024-02-16T04:08:22.561Z,4.20
2024-02-16T04:10:49.515Z,4.47
2024-02-16T04:13:16.485Z,4.28
2024-02-16T04:15:43.684Z,4.70
2024-02-16T04:18:10.841Z,4.57
2024-02-16T04:20:39.094Z,4.63
2024-02-16T04:23:06.149Z,5.70
2024-02-16T04:25:33.059Z,6.13
2024-02-16T04:28:00.257Z,6.13
2024-02-16T04:30:27.117Z,5.40
2024-02-16T04:32:54.262Z,5.10
2024-02-16T04:35:21.458Z,5.13
2024-02-16T04:37:48.372Z,5.00
2024-02-16T04:40:15.433Z,5.53
2024-02-16T04:42:42.447Z,5.43
2024-02-16T04:45:13.254Z,5.38
2024-02-16T04:47:40.453Z,6.38
2024-02-16T04:50:10.840Z,5.47
2024-02-16T04:52:39.984Z,5.80
2024-02-16T04:55:07.202Z,5.35
2024-02-16T04:57:37.101Z,5.50
2024-02-16T05:00:04.959Z,5.53
2024-02-16T05:02:31.881Z,6.53
2024-02-16T05:05:01.424Z,5.68
2024-02-16T05:07:32.343Z,6.10
2024-02-16T05:09:59.839Z,5.78
2024-02-16T05:12:27.868Z,6.20
2024-02-16T05:14:55.464Z,6.47
2024-02-16T05:17:25.525Z,6.55
2024-02-16T05:19:52.440Z,6.70
2024-02-16T05:22:19.767Z,6.15
2024-02-16T05:24:47.542Z,6.82
2024-02-16T05:27:15.210Z,6.38
2024-02-16T05:29:42.652Z,6.82
2024-02-16T05:32:09.821Z,7.00
2024-02-16T05:34:39.930Z,7.15
2024-02-16T05:37:07.575Z,7.35
2024-02-16T05:39:44.396Z,6.80
2024-02-16T05:42:11.423Z,7.55
2024-02-16T05:44:38.446Z,8.20
2024-02-16T05:47:05.339Z,16.50
2024-02-16T05:49:32.274Z,20.45
2024-02-16T05:52:34.901Z,14.80
2024-02-16T05:55:01.738Z,11.00
2024-02-16T05:57:29.779Z,9.80
2024-02-16T05:59:58.742Z,11.18
2024-02-16T06:02:26.990Z,9.55
2024-02-16T06:04:54.871Z,10.32
2024-02-16T06:07:21.956Z,8.98
2024-02-16T06:09:49.402Z,8.23
2024-02-16T06:12:17.099Z,8.40
2024-02-16T06:14:44.261Z,8.52
2024-02-16T06:17:11.557Z,9.02
2024-02-16T06:19:38.728Z,8.13
2024-02-16T06:22:05.737Z,7.45
2024-02-16T06:24:32.746Z,8.23
2024-02-16T06:26:59.682Z,7.03
2024-02-16T06:29:26.710Z,8.82
2024-02-16T06:31:53.720Z,8.52
2024-02-16T06:34:21.146Z,8.55
2024-02-16T06:36:48.626Z,7.35
2024-02-16T06:39:21.155Z,8.43
2024-02-16T06:41:48.561Z,7.72
2024-02-16T06:44:15.576Z,8.07
2024-02-16T06:46:43.391Z,8.05
2024-02-16T06:49:11.068Z,9.48
2024-02-16T06:51:38.459Z,9.52
2024-02-16T06:54:06.035Z,9.05
2024-02-16T06:56:33.063Z,8.52
2024-02-16T06:58:59.948Z,9.05
2024-02-16T07:01:28.718Z,8.18
2024-02-16T07:03:56.295Z,8.57
2024-02-16T07:06:24.166Z,8.50
2024-02-16T07:08:51.779Z,9.18
2024-02-16T07:11:19.941Z,8.50
2024-02-16T07:13:47.506Z,8.82
2024-02-16T07:16:15.105Z,8.73
2024-02-16T07:18:43.367Z,8.98
2024-02-16T07:21:10.713Z,9.02
2024-02-16T07:23:38.285Z,9.07
2024-02-16T07:26:07.509Z,9.52
2024-02-16T07:28:35.533Z,9.68
2024-02-16T07:31:03.110Z,9.95
2024-02-16T07:33:30.799Z,11.27
2024-02-16T07:35:58.003Z,10.75
2024-02-16T07:38:25.017Z,9.48
2024-02-16T07:40:52.052Z,9.30
2024-02-16T07:43:19.897Z,9.23
2024-02-16T07:45:47.300Z,9.55
2024-02-16T07:48:14.598Z,9.48
2024-02-16T07:50:42.205Z,8.68
2024-02-16T07:53:10.936Z,8.05
2024-02-16T07:55:37.898Z,9.18
2024-02-16T07:58:04.972Z,9.00
2024-02-16T08:00:31.974Z,8.43
2024-02-16T08:02:59.151Z,8.77
2024-02-16T08:05:26.848Z,8.50
2024-02-16T08:07:54.626Z,8.77
2024-02-16T08:10:26.202Z,8.60
2024-02-16T08:12:53.735Z,10.57
2024-02-16T08:15:25.014Z,9.95
2024-02-16T08:17:53.154Z,10.05
2024-02-16T08:20:20.362Z,9.50
2024-02-16T08:22:47.756Z,9.90
2024-02-16T08:25:14.743Z,9.57
2024-02-16T08:27:41.803Z,9.23
2024-02-16T08:30:10.500Z,9.20
2024-02-16T08:32:37.725Z,9.15
2024-02-16T08:35:05.216Z,9.13
2024-02-16T08:37:32.368Z,9.70
2024-02-16T08:39:59.338Z,8.75
2024-02-16T08:42:26.280Z,8.77
2024-02-16T08:44:53.225Z,9.23
2024-02-16T08:47:20.228Z,8.60
2024-02-16T08:49:47.932Z,8.73
2024-02-16T08:52:15.242Z,14.38
2024-02-16T08:54:45.264Z,8.70
2024-02-16T08:57:12.965Z,9.75
2024-02-16T08:59:40.256Z,8.88
2024-02-16T09:02:07.527Z,9.18
2024-02-16T09:04:34.587Z,8.75
2024-02-16T09:07:01.773Z,9.15
2024-02-16T09:09:29.549Z,9.18
2024-02-16T09:11:56.681Z,9.00
2024-02-16T09:14:23.689Z,9.73
2024-02-16T09:16:54.013Z,9.05
2024-02-16T09:19:21.401Z,9.93
2024-02-16T09:21:50.903Z,9.00
2024-02-16T09:24:19.258Z,10.38
2024-02-16T09:26:49.309Z,9.90
2024-02-16T09:29:16.173Z,9.40
2024-02-16T09:31:43.385Z,9.90
2024-02-16T09:34:10.722Z,9.13
2024-02-16T09:36:38.879Z,10.13
2024-02-16T09:39:06.986Z,9.38
2024-02-16T09:41:39.152Z,8.63
2024-02-16T09:44:07.421Z,8.82
2024-02-16T09:46:34.750Z,8.23
2024-02-16T09:49:04.283Z,9.50
2024-02-16T09:51:32.034Z,8.88
2024-02-16T09:54:00.010Z,10.18
2024-02-16T09:56:27.113Z,10.95
2024-02-16T09:58:55.845Z,9.63
2024-02-16T10:01:24.360Z,9.52
2024-02-16T10:03:51.672Z,8.98
2024-02-16T10:06:21.929Z,8.82
2024-02-16T10:08:53.181Z,11.95
2024-02-16T10:11:22.784Z,11.07
2024-02-16T10:13:57.289Z,9.35
2024-02-16T10:16:24.459Z,9.25
2024-02-16T10:18:51.778Z,8.57
2024-02-16T10:21:29.827Z,8.73
2024-02-16T10:24:05.636Z,8.68
2024-02-16T10:26:33.224Z,9.40
2024-02-16T10:29:00.231Z,8.65
2024-02-16T10:31:31.561Z,9.48
2024-02-16T10:34:10.678Z,7.80
2024-02-16T10:36:39.429Z,8.48
2024-02-16T10:39:09.178Z,7.72
2024-02-16T10:41:38.186Z,8.13
2024-02-16T10:44:06.564Z,8.73
2024-02-16T10:46:34.545Z,7.45
2024-02-16T10:49:02.521Z,7.93
2024-02-16T10:51:46.326Z,7.10
2024-02-16T10:54:17.071Z,8.55
2024-02-16T10:56:44.090Z,8.40
2024-02-16T10:59:11.990Z,8.40
2024-02-16T11:01:43.490Z,7.93
2024-02-16T11:04:18.333Z,7.63
2024-02-16T11:07:09.723Z,7.55
2024-02-16T11:09:39.369Z,10.70
2024-02-16T11:12:13.254Z,9.15
2024-02-16T11:14:53.597Z,8.48
2024-02-16T11:17:22.387Z,9.15
2024-02-16T11:19:50.109Z,10.02
2024-02-16T11:22:21.850Z,8.90
2024-02-16T11:27:22.226Z,8.20
2024-02-16T11:32:17.029Z,9.18
2024-02-16T11:34:44.463Z,9.45
2024-02-16T11:37:15.221Z,9.15
2024-02-16T11:39:45.763Z,7.57
2024-02-16T11:42:15.757Z,8.77
2024-02-16T11:44:53.467Z,9.15
2024-02-16T11:47:29.747Z,8.15
2024-02-16T11:50:05.454Z,9.70
2024-02-16T11:52:33.466Z,8.45
2024-02-16T11:55:02.599Z,8.43
2024-02-16T11:57:30.488Z,8.27
2024-02-16T11:59:57.925Z,8.85
2024-02-16T12:02:25.824Z,8.73
2024-02-16T12:07:29.496Z,9.18
2024-02-16T12:10:00.800Z,8.77
2024-02-16T12:12:28.549Z,9.57
2024-02-16T12:14:56.156Z,8.18
2024-02-16T12:17:23.279Z,8.57
2024-02-16T12:19:53.372Z,8.60
2024-02-16T12:22:22.488Z,8.32
2024-02-16T12:24:51.730Z,7.97
2024-02-16T12:27:19.069Z,8.27
2024-02-16T12:29:46.248Z,8.45
2024-02-16T12:32:19.545Z,8.45
2024-02-16T12:34:46.889Z,8.32
2024-02-16T12:37:14.023Z,9.00
2024-02-16T12:39:41.314Z,9.07
2024-02-16T12:42:09.216Z,8.85
2024-02-16T12:44:36.241Z,7.80
2024-02-16T12:47:04.092Z,8.55
2024-02-16T12:49:31.319Z,8.90
2024-02-16T12:51:58.359Z,7.50
2024-02-16T12:54:26.231Z,7.85
2024-02-16T12:56:54.213Z,8.65
2024-02-16T12:59:21.596Z,8.00
2024-02-16T13:01:48.656Z,7.93
2024-02-16T13:04:22.289Z,6.93
2024-02-16T13:06:50.834Z,7.55
2024-02-16T13:09:18.226Z,7.03
2024-02-16T13:11:45.372Z,7.85
2024-02-16T13:14:12.342Z,7.05
2024-02-16T13:16:39.325Z,7.80
2024-02-16T13:19:06.284Z,7.70
2024-02-16T13:21:33.637Z,7.90
2024-02-16T13:24:00.647Z,7.55
2024-02-16T13:26:28.100Z,8.00
2024-02-16T13:28:55.908Z,7.63
2024-02-16T13:31:23.644Z,8.27
2024-02-16T13:33:53.253Z,8.25
2024-02-16T13:36:20.258Z,9.00
2024-02-16T13:38:47.585Z,9.73
2024-02-16T13:41:16.989Z,8.38
2024-02-16T13:43:46.555Z,9.27
2024-02-16T13:46:13.441Z,8.85
2024-02-16T13:48:42.513Z,9.65
2024-02-16T13:51:10.267Z,9.65
2024-02-16T13:53:37.565Z,9.45
2024-02-16T13:56:06.838Z,8.50
2024-02-16T13:58:35.681Z,9.18
2024-02-16T14:01:04.619Z,8.45
2024-02-16T14:03:33.445Z,8.20
2024-02-16T14:06:01.747Z,8.35
2024-02-16T14:08:29.035Z,8.80
2024-02-16T14:10:56.181Z,8.35
2024-02-16T14:13:25.847Z,8.10
2024-02-16T14:15:52.826Z,8.55
2024-02-16T14:18:29.548Z,8.13
2024-02-16T14:21:02.055Z,9.32
2024-02-16T14:23:30.279Z,8.23
2024-02-16T14:25:57.512Z,8.68
2024-02-16T14:28:24.386Z,9.55
2024-02-16T14:30:51.341Z,9.95
2024-02-16T14:33:21.581Z,10.02
2024-02-16T14:35:53.352Z,11.85
2024-02-16T14:38:20.251Z,10.25
2024-02-16T14:40:47.446Z,10.45
2024-02-16T14:43:14.484Z,10.63
2024-02-16T14:45:41.480Z,9.50
2024-02-16T14:48:08.637Z,9.27
2024-02-16T14:50:36.814Z,9.15
2024-02-16T14:53:04.721Z,9.32
2024-02-16T14:55:31.974Z,9.30
2024-02-16T14:57:58.906Z,9.35
2024-02-16T15:00:25.905Z,9.23
2024-02-16T15:02:54.593Z,8.95
2024-02-16T15:05:21.875Z,8.95
2024-02-16T15:07:48.785Z,8.90
2024-02-16T15:10:15.775Z,8.45
2024-02-16T15:12:44.237Z,10.60
2024-02-16T15:15:11.553Z,7.70
2024-02-16T15:17:38.535Z,8.43
2024-02-16T15:20:06.675Z,8.68
2024-02-16T15:22:41.800Z,9.15
2024-02-16T15:25:12.893Z,9.48
2024-02-16T15:27:39.987Z,10.27
2024-02-16T15:30:07.610Z,9.35
2024-02-16T15:32:34.992Z,14.70
2024-02-16T15:35:02.041Z,9.32
2024-02-16T15:37:28.966Z,8.43
2024-02-16T15:39:57.620Z,9.40
2024-02-16T15:42:32.309Z,8.82
2024-02-16T15:45:02.894Z,8.77
2024-02-16T15:47:30.732Z,8.70
2024-02-16T15:49:57.685Z,8.27
2024-02-16T15:52:24.662Z,8.95
2024-02-16T15:54:51.619Z,9.02
2024-02-16T15:57:19.795Z,8.90
2024-02-16T15:59:46.929Z,8.98
2024-02-16T16:02:13.892Z,9.10
2024-02-16T16:04:40.826Z,9.93
2024-02-16T16:07:07.923Z,9.20
2024-02-16T16:09:34.881Z,8.02
2024-02-16T16:12:02.892Z,9.18
2024-02-16T16:14:29.771Z,8.38
2024-02-16T16:16:56.618Z,9.35
2024-02-16T16:19:23.667Z,8.77
2024-02-16T16:21:51.225Z,8.85
2024-02-16T16:24:18.288Z,8.63
2024-02-16T16:26:45.814Z,8.98
2024-02-16T16:29:12.910Z,9.43
2024-02-16T16:31:40.486Z,9.73
2024-02-16T16:34:08.483Z,11.90
2024-02-16T16:36:35.859Z,10.88
2024-02-16T16:39:04.880Z,9.77
2024-02-16T16:41:31.855Z,10.00
2024-02-16T16:43:58.798Z,9.95
2024-02-16T16:46:25.719Z,10.02
2024-02-16T16:48:52.697Z,8.85
2024-02-16T16:51:20.029Z,8.88
2024-02-16T16:53:46.880Z,9.85
2024-02-16T16:56:14.321Z,9.88
2024-02-16T16:58:41.275Z,9.85
2024-02-16T17:01:09.322Z,9.73
2024-02-16T17:03:36.339Z,10.25
2024-02-16T17:06:06.321Z,9.93
2024-02-16T17:08:33.505Z,10.35
2024-02-16T17:11:04.944Z,10.00
2024-02-16T17:13:33.131Z,9.88
2024-02-16T17:16:01.220Z,11.07
2024-02-16T17:18:35.151Z,9.45
2024-02-16T17:21:02.934Z,10.05
2024-02-16T17:23:30.330Z,9.55
2024-02-16T17:25:59.316Z,9.23
2024-02-16T17:28:26.811Z,11.65
2024-02-16T17:30:53.724Z,10.68
2024-02-16T17:33:21.091Z,9.93
2024-02-16T17:35:48.179Z,11.50
2024-02-16T17:38:15.101Z,10.40
2024-02-16T17:40:42.390Z,11.15
2024-02-16T17:43:09.442Z,11.75
2024-02-16T17:45:36.440Z,11.60
2024-02-16T17:48:03.995Z,10.70
2024-02-16T17:50:32.858Z,11.98
2024-02-16T17:52:59.748Z,9.77
2024-02-16T17:55:26.866Z,9.55
2024-02-16T17:57:53.819Z,10.48
2024-02-16T18:00:20.959Z,9.48
2024-02-16T18:02:49.820Z,9.07
2024-02-16T18:05:17.206Z,8.60
2024-02-16T18:07:44.183Z,8.82
2024-02-16T18:10:12.001Z,8.65
2024-02-16T18:12:39.219Z,8.88
2024-02-16T18:15:06.880Z,8.40
2024-02-16T18:17:33.982Z,9.48
2024-02-16T18:20:01.180Z,8.95
2024-02-16T18:22:28.238Z,9.45
2024-02-16T18:24:55.104Z,8.80
2024-02-16T18:27:22.066Z,7.35
2024-02-16T18:29:49.550Z,9.35
2024-02-16T18:32:16.525Z,9.00
2024-02-16T18:34:46.373Z,9.75
2024-02-16T18:37:14.975Z,8.70
2024-02-16T18:39:42.046Z,8.45
2024-02-16T18:42:09.401Z,8.50
2024-02-16T18:44:37.289Z,8.10
2024-02-16T18:47:04.487Z,7.90
2024-02-16T18:49:31.573Z,7.18
2024-02-16T18:51:58.551Z,7.30
2024-02-16T18:54:25.478Z,7.70
2024-02-16T18:56:52.591Z,7.38
2024-02-16T18:59:19.512Z,7.85
2024-02-16T19:01:47.065Z,7.93
2024-02-16T19:04:14.074Z,8.52
2024-02-16T19:06:41.147Z,7.82
2024-02-16T19:09:10.188Z,7.68
2024-02-16T19:11:37.158Z,8.57
2024-02-16T19:14:04.248Z,8.25
2024-02-16T19:16:31.132Z,8.35
2024-02-16T19:18:58.190Z,8.00
2024-02-16T19:21:25.582Z,11.68
2024-02-16T19:23:52.536Z,13.27
2024-02-16T19:26:20.177Z,8.48
2024-02-16T19:28:47.016Z,9.07
2024-02-16T19:31:14.682Z,9.20
2024-02-16T19:33:41.865Z,9.90
2024-02-16T19:36:10.008Z,8.60
2024-02-16T19:38:37.773Z,8.75
2024-02-16T19:41:05.186Z,7.63
2024-02-16T19:43:32.293Z,8.15
2024-02-16T19:46:00.292Z,8.75
2024-02-16T19:48:27.507Z,8.23
2024-02-16T19:50:54.617Z,7.88
2024-02-16T19:53:22.186Z,8.25
2024-02-16T19:55:49.561Z,7.10
2024-02-16T19:58:16.462Z,7.03
2024-02-16T20:00:44.137Z,5.60
2024-02-16T20:03:11.208Z,6.30
2024-02-16T20:05:38.199Z,6.13
2024-02-16T20:08:05.895Z,5.90
2024-02-16T20:10:33.223Z,5.28
2024-02-16T20:13:00.656Z,4.95
2024-02-16T20:15:31.238Z,5.70
2024-02-16T20:17:59.993Z,4.70
2024-02-16T20:20:27.910Z,4.97
2024-02-16T20:22:56.235Z,5.13
2024-02-16T20:25:23.927Z,4.53
2024-02-16T20:27:51.459Z,4.80
2024-02-16T20:30:18.927Z,5.18
2024-02-16T20:32:46.901Z,4.57
2024-02-16T20:35:14.461Z,5.15
2024-02-16T20:37:41.670Z,5.07
2024-02-16T20:40:09.216Z,5.03
2024-02-16T20:42:36.210Z,5.32
2024-02-16T20:45:03.443Z,4.45
2024-02-16T20:47:33.588Z,5.05
2024-02-16T20:50:01.766Z,5.03
2024-02-16T20:52:28.828Z,4.88
2024-02-16T20:54:55.701Z,4.22
2024-02-16T20:57:22.772Z,3.88
2024-02-16T20:59:49.699Z,4.45
2024-02-16T21:02:19.216Z,4.57
2024-02-16T21:04:47.611Z,4.18
2024-02-16T21:07:15.051Z,4.35
2024-02-16T21:09:42.433Z,4.65
2024-02-16T21:12:10.136Z,4.22
2024-02-16T21:14:37.544Z,4.72
2024-02-16T21:17:04.651Z,4.60
2024-02-16T21:19:31.692Z,4.68
2024-02-16T21:21:58.706Z,4.95
2024-02-16T21:24:26.124Z,5.22
2024-02-16T21:26:53.301Z,5.55
2024-02-16T21:29:20.321Z,5.55
2024-02-16T21:31:47.280Z,6.32
2024-02-16T21:34:15.345Z,5.63
2024-02-16T21:36:43.094Z,5.38
2024-02-16T21:39:10.362Z,4.70
2024-02-16T21:41:37.565Z,5.47
2024-02-16T21:44:05.390Z,4.32
2024-02-16T21:46:34.078Z,5.10
2024-02-16T21:49:06.031Z,5.97
2024-02-16T21:51:38.138Z,5.10
2024-02-16T21:56:34.635Z,5.55
2024-02-16T21:59:01.928Z,5.18
2024-02-16T22:01:29.923Z,5.63
2024-02-16T22:03:57.108Z,5.43
2024-02-16T22:06:28.865Z,5.35
2024-02-16T22:08:56.427Z,5.30
2024-02-16T22:11:24.240Z,5.50
2024-02-16T22:13:51.718Z,6.03
2024-02-16T22:16:20.373Z,5.10
2024-02-16T22:18:48.618Z,6.13
2024-02-16T22:21:18.356Z,6.53
2024-02-16T22:23:49.695Z,5.95
2024-02-16T22:26:16.895Z,5.57
2024-02-16T22:28:43.764Z,5.28
2024-02-16T22:31:10.933Z,5.50
2024-02-16T22:33:37.867Z,6.65
2024-02-16T22:36:05.116Z,6.35
2024-02-16T22:38:34.040Z,6.03
2024-02-16T22:41:01.399Z,5.80
2024-02-16T22:43:28.768Z,5.82
2024-02-16T22:45:56.729Z,6.43
2024-02-16T22:48:24.010Z,5.88
2024-02-16T22:50:51.192Z,6.32
2024-02-16T22:53:18.161Z,6.05
2024-02-16T22:55:47.260Z,5.53
2024-02-16T22:58:14.293Z,6.43
2024-02-16T23:00:42.636Z,5.63
2024-02-16T23:03:11.569Z,6.10
2024-02-16T23:05:39.745Z,6.93
2024-02-16T23:08:10.230Z,6.20
2024-02-16T23:10:38.748Z,5.93
2024-02-16T23:13:06.313Z,5.90
2024-02-16T23:15:36.169Z,5.65
2024-02-16T23:18:03.719Z,6.18
2024-02-16T23:20:31.381Z,6.60
2024-02-16T23:23:01.078Z,6.32
2024-02-16T23:25:29.482Z,6.30
2024-02-16T23:27:59.335Z,5.57
2024-02-16T23:30:26.820Z,6.35
2024-02-16T23:32:54.902Z,6.88
2024-02-16T23:35:23.284Z,6.85
2024-02-16T23:37:50.938Z,6.60
2024-02-16T23:40:18.137Z,7.13
2024-02-16T23:42:48.101Z,7.03
2024-02-16T23:45:19.116Z,7.18
2024-02-16T23:47:46.602Z,7.40
2024-02-16T23:50:15.594Z,7.35
2024-02-16T23:52:43.313Z,7.63
2024-02-16T23:55:11.469Z,7.82
2024-02-16T23:57:38.997Z,7.70
